Time;durP1;ratioP1;P1;durP2;ratioP2;P2;SDS_P1;SDS_P2;PMS_P1;PMS_P2;Temp;Humidity;BMP_temperature;BMP_pressure;BME280_temperature;BME280_humidity;BME280_pressure;Samples;Min_cycle;Max_cycle;Signal;HPM_P1;HPM_P2
2023/05/01 00:00:41;;;;;;;4.37;2.00;;;10.20;99.90;;;;;;5071224;28;20025;-75
2023/05/01 00:03:06;;;;;;;5.33;2.67;;;10.20;99.90;;;;;;5073628;28;20037;-75
2023/05/01 00:05:32;;;;;;;4.33;2.63;;;10.20;99.90;;;;;;5073468;28;20312;-75
2023/05/01 00:07:58;;;;;;;5.70;2.60;;;10.30;99.90;;;;;;5081052;28;20040;-75
2023/05/01 00:10:23;;;;;;;6.20;2.53;;;10.30;99.90;;;;;;5072628;28;20107;-74
2023/05/01 00:12:49;;;;;;;4.07;2.60;;;10.30;99.90;;;;;;5089136;28;20032;-74
2023/05/01 00:15:15;;;;;;;6.20;2.70;;;10.30;99.90;;;;;;5073209;28;20024;-76
2023/05/01 00:17:41;;;;;;;5.67;2.77;;;10.20;99.90;;;;;;5089363;28;20058;-75
2023/05/01 00:20:07;;;;;;;7.13;2.53;;;10.20;99.90;;;;;;5073432;28;20035;-76
2023/05/01 00:22:33;;;;;;;4.38;2.40;;;10.20;99.90;;;;;;5068376;28;20025;-74
2023/05/01 00:24:58;;;;;;;9.60;3.40;;;10.20;99.90;;;;;;5069470;28;20426;-75
2023/05/01 00:27:24;;;;;;;4.50;2.77;;;10.20;99.90;;;;;;5073434;28;20025;-74
2023/05/01 00:29:50;;;;;;;5.93;2.07;;;10.20;99.90;;;;;;5070417;28;20101;-63
2023/05/01 00:32:15;;;;;;;4.93;2.43;;;10.20;99.90;;;;;;5068821;28;20035;-75
2023/05/01 00:34:41;;;;;;;6.70;2.53;;;10.10;99.90;;;;;;5073507;28;20040;-63
2023/05/01 00:37:07;;;;;;;5.83;2.03;;;10.10;99.90;;;;;;5073448;28;20017;-63
2023/05/01 00:39:33;;;;;;;6.23;2.40;;;10.00;99.90;;;;;;5074402;28;20377;-63
2023/05/01 00:41:58;;;;;;;5.07;2.53;;;10.00;99.90;;;;;;5071990;28;20029;-63
2023/05/01 00:44:24;;;;;;;8.43;2.30;;;10.00;99.90;;;;;;5072762;28;20029;-63
2023/05/01 00:46:50;;;;;;;7.83;2.90;;;10.00;99.90;;;;;;5071939;28;20052;-63
2023/05/01 00:49:16;;;;;;;8.77;2.83;;;10.00;99.90;;;;;;5074072;28;20060;-67
2023/05/01 00:51:42;;;;;;;3.80;2.70;;;9.90;99.90;;;;;;5074490;28;20027;-63
2023/05/01 00:54:09;;;;;;;5.70;2.92;;;9.90;99.90;;;;;;5075304;28;20033;-63
2023/05/01 00:56:34;;;;;;;9.32;2.33;;;9.80;99.90;;;;;;5077810;28;20044;-63
2023/05/01 00:59:00;;;;;;;6.03;2.60;;;9.80;99.90;;;;;;5063703;28;20079;-64
2023/05/01 01:01:27;;;;;;;5.67;2.60;;;9.80;99.90;;;;;;5076853;28;20100;-63
2023/05/01 01:03:56;;;;;;;5.00;2.85;;;9.70;99.90;;;;;;5073097;28;20572;-63
2023/05/01 01:06:46;;;;;;;7.50;2.47;;;9.70;99.90;;;;;;5076332;28;20028;-75
2023/05/01 01:09:29;;;;;;;3.63;2.40;;;9.60;99.90;;;;;;5076173;28;20415;-63
2023/05/01 01:12:08;;;;;;;4.28;2.63;;;9.60;99.90;;;;;;5076738;28;20028;-63
2023/05/01 01:15:01;;;;;;;7.65;3.05;;;9.50;99.90;;;;;;5076979;28;20081;-63
2023/05/01 01:17:37;;;;;;;7.05;2.50;;;9.60;99.90;;;;;;5062371;28;20024;-63
2023/05/01 01:20:22;;;;;;;5.78;2.60;;;9.50;99.90;;;;;;5077602;28;20024;-63
2023/05/01 01:23:03;;;;;;;4.38;2.47;;;9.40;99.90;;;;;;5062190;28;20029;-74
2023/05/01 01:25:39;;;;;;;5.95;2.10;;;9.40;99.90;;;;;;5077152;28;20056;-63
2023/05/01 01:28:19;;;;;;;2.87;2.00;;;9.40;99.90;;;;;;5076602;28;20316;-63
2023/05/01 01:31:26;;;;;;;3.83;2.25;;;9.30;99.90;;;;;;5070369;28;20266;-63
2023/05/01 01:34:34;;;;;;;5.28;2.30;;;9.20;99.90;;;;;;5082065;28;20043;-63
2023/05/01 01:37:27;;;;;;;4.57;2.40;;;9.20;99.90;;;;;;5066691;28;20064;-62
2023/05/01 01:40:01;;;;;;;6.75;2.58;;;9.20;99.90;;;;;;5075588;28;20020;-63
2023/05/01 01:42:36;;;;;;;5.18;2.97;;;9.20;99.90;;;;;;5075749;28;20024;-63
2023/05/01 01:45:12;;;;;;;7.10;2.58;;;9.10;99.90;;;;;;5070446;28;20036;-63
2023/05/01 01:47:41;;;;;;;5.72;2.50;;;9.10;99.90;;;;;;5072654;28;20024;-63
2023/05/01 01:50:08;;;;;;;6.90;2.55;;;9.10;99.90;;;;;;5076729;28;20034;-75
2023/05/01 01:52:37;;;;;;;7.55;2.80;;;9.00;99.90;;;;;;5075168;28;20032;-63
2023/05/01 01:55:08;;;;;;;5.15;2.75;;;9.00;99.90;;;;;;5076559;28;20368;-63
2023/05/01 01:57:38;;;;;;;5.10;2.63;;;9.00;99.90;;;;;;5061838;28;20350;-75
2023/05/01 02:00:09;;;;;;;3.88;2.50;;;9.00;99.90;;;;;;5062923;28;20106;-63
2023/05/01 02:02:38;;;;;;;5.45;2.80;;;9.00;99.90;;;;;;5074783;28;20410;-63
2023/05/01 02:05:10;;;;;;;6.93;2.92;;;9.00;99.90;;;;;;5074876;28;20086;-75
2023/05/01 02:07:39;;;;;;;6.50;2.45;;;9.00;99.90;;;;;;5076715;28;20297;-62
2023/05/01 02:10:07;;;;;;;6.90;2.88;;;9.00;99.90;;;;;;5075336;28;20033;-63
2023/05/01 02:12:34;;;;;;;4.35;2.25;;;8.90;99.90;;;;;;5066834;28;20092;-63
2023/05/01 02:15:00;;;;;;;6.25;2.63;;;8.90;99.90;;;;;;5075603;28;20028;-63
2023/05/01 02:17:27;;;;;;;4.18;2.67;;;8.90;99.90;;;;;;5065794;28;20423;-63
2023/05/01 02:19:56;;;;;;;4.60;2.63;;;8.90;99.90;;;;;;5065340;28;20032;-63
2023/05/01 02:22:24;;;;;;;6.97;2.92;;;8.90;99.90;;;;;;5061062;28;20101;-63
2023/05/01 02:24:52;;;;;;;4.60;2.55;;;8.90;99.90;;;;;;5067612;28;20108;-62
2023/05/01 02:27:59;;;;;;;4.75;2.47;;;8.80;99.90;;;;;;5068658;28;20082;-62
2023/05/01 02:30:25;;;;;;;6.95;2.50;;;8.90;99.90;;;;;;5065872;28;20124;-63
2023/05/01 02:32:51;;;;;;;7.87;2.67;;;8.80;99.90;;;;;;5071314;28;20103;-63
2023/05/01 02:35:17;;;;;;;7.73;3.03;;;8.80;99.90;;;;;;5072608;28;20029;-63
2023/05/01 02:37:44;;;;;;;9.80;2.83;;;8.90;99.90;;;;;;5071919;28;20036;-75
2023/05/01 02:40:13;;;;;;;3.58;2.83;;;8.90;99.90;;;;;;5075959;28;20028;-63
2023/05/01 02:42:42;;;;;;;8.32;3.50;;;8.80;99.90;;;;;;5075507;28;20027;-75
2023/05/01 02:45:14;;;;;;;8.77;3.97;;;8.80;99.90;;;;;;5074680;28;20032;-63
2023/05/01 02:47:42;;;;;;;5.25;3.45;;;8.80;99.90;;;;;;5069978;28;20079;-63
2023/05/01 02:50:09;;;;;;;7.75;3.53;;;8.80;99.90;;;;;;5061604;28;20037;-63
2023/05/01 02:52:37;;;;;;;8.90;3.50;;;8.80;99.90;;;;;;5071977;28;20104;-63
2023/05/01 02:55:04;;;;;;;11.15;3.92;;;8.70;99.90;;;;;;5073395;28;20468;-63
2023/05/01 02:57:32;;;;;;;5.28;2.80;;;8.70;99.90;;;;;;5073889;28;20035;-67
2023/05/01 02:59:58;;;;;;;6.40;2.70;;;8.70;99.90;;;;;;5075597;28;20803;-63
2023/05/01 03:02:24;;;;;;;6.63;3.23;;;8.80;99.90;;;;;;5075758;28;20029;-63
2023/05/01 03:04:49;;;;;;;10.27;3.70;;;8.80;99.90;;;;;;5073450;28;20458;-71
2023/05/01 03:07:15;;;;;;;8.57;3.17;;;8.80;99.90;;;;;;5074438;28;20037;-63
2023/05/01 03:09:41;;;;;;;7.30;3.40;;;8.80;99.90;;;;;;5062881;28;20077;-63
2023/05/01 03:12:06;;;;;;;4.17;2.70;;;8.70;99.90;;;;;;5075054;28;20024;-63
2023/05/01 03:14:32;;;;;;;5.93;2.80;;;8.70;99.90;;;;;;5070985;28;20297;-63
2023/05/01 03:16:58;;;;;;;6.67;3.20;;;8.70;99.90;;;;;;5075132;28;20082;-77
2023/05/01 03:19:24;;;;;;;9.40;3.07;;;8.70;99.90;;;;;;5075140;28;20040;-63
2023/05/01 03:21:49;;;;;;;3.17;2.20;;;8.70;99.90;;;;;;5069136;28;20339;-68
2023/05/01 03:24:15;;;;;;;6.03;3.10;;;8.80;99.90;;;;;;5066361;28;20161;-63
2023/05/01 03:26:41;;;;;;;10.37;2.50;;;8.90;99.90;;;;;;5073643;28;20082;-63
2023/05/01 03:29:07;;;;;;;5.57;3.27;;;8.80;99.90;;;;;;5074885;28;20039;-63
2023/05/01 03:31:33;;;;;;;6.90;2.65;;;8.80;99.90;;;;;;5106928;28;20032;-77
2023/05/01 03:33:58;;;;;;;8.83;3.00;;;8.80;99.90;;;;;;5074909;28;20029;-63
2023/05/01 03:36:24;;;;;;;7.80;2.93;;;8.70;99.90;;;;;;5074986;28;20034;-63
2023/05/01 03:38:50;;;;;;;10.43;3.23;;;8.60;99.90;;;;;;5072331;28;20024;-63
2023/05/01 03:41:16;;;;;;;6.70;2.70;;;8.60;99.90;;;;;;5074677;28;20029;-63
2023/05/01 03:43:42;;;;;;;7.43;2.88;;;8.50;99.90;;;;;;5074097;28;20020;-63
2023/05/01 03:46:08;;;;;;;4.50;2.83;;;8.50;99.90;;;;;;5073829;28;20556;-63
2023/05/01 03:48:33;;;;;;;12.23;3.80;;;8.50;99.90;;;;;;5075118;28;20032;-63
2023/05/01 03:50:59;;;;;;;8.10;2.97;;;8.40;99.90;;;;;;5063364;28;20064;-63
2023/05/01 03:53:25;;;;;;;5.47;2.80;;;8.50;99.90;;;;;;5073026;28;20029;-63
2023/05/01 03:55:51;;;;;;;6.70;3.00;;;8.50;99.90;;;;;;5072543;28;20066;-63
2023/05/01 03:58:16;;;;;;;8.03;3.03;;;8.50;99.90;;;;;;5074591;28;20036;-76
2023/05/01 04:00:42;;;;;;;5.90;3.00;;;8.50;99.90;;;;;;5061041;28;20362;-63
2023/05/01 04:03:08;;;;;;;7.37;2.87;;;8.60;99.90;;;;;;5073540;28;20028;-63
2023/05/01 04:05:34;;;;;;;4.17;2.60;;;8.60;99.90;;;;;;5074443;28;20320;-63
2023/05/01 04:08:00;;;;;;;6.35;3.35;;;8.60;99.90;;;;;;5072472;28;20035;-63
2023/05/01 04:10:26;;;;;;;6.07;2.83;;;8.60;99.90;;;;;;5071970;28;20028;-63
2023/05/01 04:12:52;;;;;;;10.10;3.10;;;8.60;99.90;;;;;;5073701;28;20025;-63
2023/05/01 04:15:17;;;;;;;7.20;3.37;;;8.60;99.90;;;;;;5064119;28;20029;-76
2023/05/01 04:17:43;;;;;;;5.10;2.63;;;8.40;99.90;;;;;;5065905;28;20048;-63
2023/05/01 04:20:10;;;;;;;5.20;2.40;;;8.40;99.90;;;;;;5067321;28;20052;-63
2023/05/01 04:22:36;;;;;;;5.25;2.45;;;8.30;99.90;;;;;;5071718;28;20032;-63
2023/05/01 04:25:03;;;;;;;3.00;2.17;;;8.30;99.90;;;;;;5072730;28;20043;-63
2023/05/01 04:27:29;;;;;;;6.57;1.95;;;8.10;99.90;;;;;;5072911;28;20032;-63
2023/05/01 04:29:55;;;;;;;3.75;1.98;;;8.00;99.90;;;;;;5059990;28;20491;-63
2023/05/01 04:32:21;;;;;;;2.03;1.80;;;8.00;99.90;;;;;;5074565;28;20044;-64
2023/05/01 04:34:47;;;;;;;5.40;2.00;;;7.80;99.90;;;;;;5068664;28;20435;-77
2023/05/01 04:37:13;;;;;;;4.57;2.10;;;7.80;99.90;;;;;;5073218;28;20426;-63
2023/05/01 04:39:38;;;;;;;2.87;2.07;;;7.70;99.90;;;;;;5052859;28;20392;-63
2023/05/01 04:42:04;;;;;;;3.23;2.53;;;7.70;99.90;;;;;;5072091;28;20024;-63
2023/05/01 04:44:33;;;;;;;3.67;1.90;;;7.60;99.90;;;;;;5070047;28;20032;-63
2023/05/01 04:47:02;;;;;;;5.32;2.85;;;7.60;99.90;;;;;;5073821;28;20051;-63
2023/05/01 04:49:28;;;;;;;3.33;2.35;;;7.60;99.90;;;;;;5073157;28;20335;-77
2023/05/01 04:51:54;;;;;;;8.67;2.73;;;7.60;99.90;;;;;;5074091;28;20032;-63
2023/05/01 04:54:19;;;;;;;5.70;2.60;;;7.50;99.90;;;;;;5068956;28;20029;-63
2023/05/01 04:56:45;;;;;;;5.07;2.90;;;7.60;99.90;;;;;;5097949;28;20028;-64
2023/05/01 04:59:11;;;;;;;4.93;2.87;;;7.70;99.90;;;;;;5063784;28;20021;-65
2023/05/01 05:01:36;;;;;;;3.57;2.47;;;7.70;99.90;;;;;;5062499;28;20024;-64
2023/05/01 05:04:02;;;;;;;5.70;2.63;;;7.70;99.90;;;;;;5067247;28;20049;-63
2023/05/01 05:06:27;;;;;;;4.70;2.47;;;7.80;99.90;;;;;;5062552;28;20112;-65
2023/05/01 05:08:55;;;;;;;4.47;2.30;;;7.90;99.90;;;;;;5063213;28;20060;-64
2023/05/01 05:11:21;;;;;;;5.13;1.95;;;7.90;99.90;;;;;;5061664;28;20466;-63
2023/05/01 05:13:47;;;;;;;4.03;2.43;;;8.00;99.90;;;;;;5067685;28;20108;-63
2023/05/01 05:16:13;;;;;;;16.47;3.20;;;8.10;99.90;;;;;;5068190;28;20029;-63
2023/05/01 05:18:38;;;;;;;5.77;2.70;;;8.20;99.90;;;;;;5071570;28;20369;-63
2023/05/01 05:21:05;;;;;;;4.13;2.33;;;8.20;99.90;;;;;;5059113;28;20082;-64
2023/05/01 05:23:31;;;;;;;9.10;2.50;;;8.30;99.90;;;;;;5064746;28;20316;-63
2023/05/01 05:26:00;;;;;;;5.00;2.63;;;8.40;99.90;;;;;;5067079;28;20036;-64
2023/05/01 05:28:26;;;;;;;5.20;2.78;;;8.60;99.90;;;;;;5065290;28;20032;-63
2023/05/01 05:30:52;;;;;;;5.13;3.10;;;8.70;99.90;;;;;;5062225;28;20309;-63
2023/05/01 05:33:18;;;;;;;6.83;3.13;;;8.80;99.90;;;;;;5058283;28;20044;-79
2023/05/01 05:35:44;;;;;;;7.07;3.03;;;8.90;99.90;;;;;;5054917;28;20021;-64
2023/05/01 05:38:09;;;;;;;8.20;3.40;;;8.90;99.90;;;;;;5060971;28;20048;-64
2023/05/01 05:40:35;;;;;;;11.60;3.03;;;9.00;99.90;;;;;;5068055;28;20025;-79
2023/05/01 05:43:01;;;;;;;8.10;3.03;;;9.00;99.90;;;;;;5072927;28;20025;-64
2023/05/01 05:45:26;;;;;;;9.43;4.13;;;9.10;99.90;;;;;;5061063;28;20707;-64
2023/05/01 05:47:52;;;;;;;9.13;3.50;;;9.20;99.90;;;;;;5063254;28;20096;-64
2023/05/01 05:50:17;;;;;;;4.63;3.20;;;9.20;99.90;;;;;;5062265;28;20071;-78
2023/05/01 05:52:43;;;;;;;6.23;3.23;;;9.30;99.90;;;;;;5072168;28;20048;-64
2023/05/01 05:55:09;;;;;;;9.17;3.83;;;9.40;99.90;;;;;;5076490;28;20021;-63
2023/05/01 05:57:36;;;;;;;7.97;3.70;;;9.40;99.90;;;;;;5077041;28;20025;-63
2023/05/01 06:00:04;;;;;;;10.05;4.13;;;9.50;99.90;;;;;;5072799;28;20033;-64
2023/05/01 06:02:31;;;;;;;9.10;3.40;;;9.60;99.90;;;;;;5073025;28;20118;-63
2023/05/01 06:04:56;;;;;;;7.75;3.58;;;9.70;99.90;;;;;;5073176;28;20025;-64
2023/05/01 06:07:24;;;;;;;8.10;4.00;;;9.80;99.90;;;;;;5065134;28;20033;-64
2023/05/01 06:09:50;;;;;;;6.28;3.78;;;9.90;99.90;;;;;;5066619;28;20059;-64
2023/05/01 06:12:15;;;;;;;10.70;3.93;;;10.00;99.90;;;;;;5061787;28;20057;-64
2023/05/01 06:14:41;;;;;;;9.13;3.77;;;10.00;99.90;;;;;;5076011;28;20024;-63
2023/05/01 06:17:07;;;;;;;10.50;3.87;;;10.10;99.90;;;;;;5064750;28;20072;-64
2023/05/01 06:19:34;;;;;;;6.45;3.28;;;10.10;99.90;;;;;;5071311;28;20082;-77
2023/05/01 06:22:00;;;;;;;10.82;3.45;;;10.10;99.90;;;;;;5070898;28;20032;-64
2023/05/01 06:24:26;;;;;;;7.70;3.40;;;10.20;99.90;;;;;;5076547;28;20372;-78
2023/05/01 06:26:52;;;;;;;11.50;3.20;;;10.20;99.90;;;;;;5072917;28;20028;-64
2023/05/01 06:29:17;;;;;;;6.73;3.63;;;10.20;99.90;;;;;;5073256;28;20032;-64
2023/05/01 06:31:43;;;;;;;11.37;3.47;;;10.20;99.90;;;;;;5068998;28;20039;-64
2023/05/01 06:34:09;;;;;;;11.53;2.97;;;10.30;99.90;;;;;;5070255;28;20469;-63
2023/05/01 06:36:35;;;;;;;5.30;3.57;;;10.30;99.90;;;;;;5074119;28;20028;-64
2023/05/01 06:39:00;;;;;;;4.63;3.07;;;10.30;99.90;;;;;;5070520;28;20024;-63
2023/05/01 06:41:26;;;;;;;8.30;3.07;;;10.50;99.90;;;;;;5061410;28;20025;-65
2023/05/01 06:43:52;;;;;;;7.73;3.07;;;10.50;99.90;;;;;;5074571;28;20323;-64
2023/05/01 06:46:17;;;;;;;10.23;3.23;;;10.60;99.90;;;;;;5065090;28;20123;-64
2023/05/01 06:48:43;;;;;;;8.17;3.20;;;10.60;99.90;;;;;;5057043;28;20082;-64
2023/05/01 06:51:09;;;;;;;9.43;3.50;;;10.70;99.90;;;;;;5060588;28;20363;-78
2023/05/01 06:53:35;;;;;;;6.90;3.60;;;10.70;99.90;;;;;;5056470;28;20412;-64
2023/05/01 06:56:01;;;;;;;8.65;3.75;;;10.80;99.90;;;;;;5058660;28;20078;-64
2023/05/01 06:58:26;;;;;;;7.63;3.80;;;10.90;99.90;;;;;;5058612;28;20028;-64
2023/05/01 07:00:53;;;;;;;7.87;3.40;;;10.90;99.90;;;;;;5058352;28;20013;-64
2023/05/01 07:03:18;;;;;;;6.38;3.53;;;11.00;99.90;;;;;;5059990;28;20100;-64
2023/05/01 07:05:44;;;;;;;9.97;3.43;;;11.20;99.90;;;;;;5056751;28;20100;-64
2023/05/01 07:08:10;;;;;;;11.30;3.80;;;11.40;99.90;;;;;;5062613;28;20079;-73
2023/05/01 07:10:35;;;;;;;7.63;3.23;;;11.40;99.90;;;;;;5056018;28;20015;-78
2023/05/01 07:13:01;;;;;;;7.77;3.67;;;11.40;99.90;;;;;;5055823;28;20021;-64
2023/05/01 07:15:27;;;;;;;9.10;3.90;;;11.50;99.90;;;;;;5054942;28;20052;-64
2023/05/01 07:17:52;;;;;;;9.87;4.07;;;11.60;99.90;;;;;;5059633;28;20056;-64
2023/05/01 07:20:18;;;;;;;9.50;3.88;;;11.70;99.90;;;;;;5059539;28;20052;-63
2023/05/01 07:22:44;;;;;;;7.40;3.50;;;11.70;99.90;;;;;;5056862;28;20053;-64
2023/05/01 07:25:10;;;;;;;7.37;3.70;;;11.70;99.90;;;;;;5062578;28;20474;-64
2023/05/01 07:27:35;;;;;;;12.73;3.90;;;11.70;99.90;;;;;;5055957;28;20021;-64
2023/05/01 07:30:03;;;;;;;6.27;3.67;;;11.70;99.90;;;;;;5059545;28;20050;-64
2023/05/01 07:32:29;;;;;;;9.18;3.97;;;11.70;99.90;;;;;;5056107;28;20028;-64
2023/05/01 07:34:55;;;;;;;6.43;3.43;;;11.90;99.90;;;;;;5063423;28;20119;-64
2023/05/01 07:37:22;;;;;;;6.63;3.23;;;12.00;99.90;;;;;;5057491;28;20354;-64
2023/05/01 07:39:48;;;;;;;13.85;3.85;;;12.10;99.90;;;;;;5059985;28;20086;-63
2023/05/01 07:42:14;;;;;;;7.70;3.50;;;12.20;99.90;;;;;;5055818;28;20013;-75
2023/05/01 07:44:39;;;;;;;10.67;3.30;;;12.20;99.90;;;;;;5060184;28;20115;-64
2023/05/01 07:47:05;;;;;;;11.87;3.73;;;12.30;99.90;;;;;;5055584;28;20028;-64
2023/05/01 07:49:37;;;;;;;12.90;4.27;;;12.40;99.90;;;;;;5061215;28;20489;-64
2023/05/01 07:52:06;;;;;;;7.78;3.83;;;12.60;99.90;;;;;;5060773;28;20090;-64
2023/05/01 07:54:32;;;;;;;5.85;2.97;;;12.60;99.90;;;;;;5066574;28;20181;-64
2023/05/01 07:56:58;;;;;;;7.03;3.40;;;12.80;99.90;;;;;;5059715;28;20036;-64
2023/05/01 07:59:23;;;;;;;6.57;3.43;;;13.00;99.90;;;;;;5056788;28;20276;-64
2023/05/01 08:01:49;;;;;;;7.07;3.43;;;13.00;99.90;;;;;;5058328;28;20021;-64
2023/05/01 08:04:15;;;;;;;16.43;4.13;;;13.10;99.90;;;;;;5057179;28;20029;-63
2023/05/01 08:06:41;;;;;;;11.50;3.95;;;13.30;99.90;;;;;;5066379;28;20052;-64
2023/05/01 08:09:07;;;;;;;8.80;3.63;;;13.40;99.90;;;;;;5058899;28;20063;-64
2023/05/01 08:11:33;;;;;;;9.50;3.73;;;13.50;99.90;;;;;;5060732;28;20038;-64
2023/05/01 08:13:58;;;;;;;6.37;3.53;;;13.50;99.90;;;;;;5060573;28;20090;-64
2023/05/01 08:16:24;;;;;;;11.13;3.90;;;13.40;99.90;;;;;;5058610;28;20021;-77
2023/05/01 08:18:49;;;;;;;7.17;3.60;;;13.40;99.90;;;;;;5054358;28;20029;-64
2023/05/01 08:21:15;;;;;;;7.63;3.67;;;13.40;99.90;;;;;;5062019;28;20029;-78
2023/05/01 08:23:41;;;;;;;9.93;3.67;;;13.50;99.90;;;;;;5056382;28;20020;-64
2023/05/01 08:26:06;;;;;;;8.53;3.90;;;13.70;99.90;;;;;;5061409;28;20332;-64
2023/05/01 08:28:34;;;;;;;9.30;4.30;;;13.90;99.90;;;;;;5064328;28;20112;-64
2023/05/01 08:31:00;;;;;;;9.70;4.10;;;13.90;99.90;;;;;;5059566;28;20045;-64
2023/05/01 08:33:26;;;;;;;7.38;4.43;;;14.10;99.90;;;;;;5058589;28;20024;-64
2023/05/01 08:35:52;;;;;;;6.07;4.10;;;14.40;99.90;;;;;;5058726;28;20316;-64
2023/05/01 08:38:18;;;;;;;5.63;4.23;;;14.60;99.90;;;;;;5063020;28;20610;-64
2023/05/01 08:40:52;;;;;;;11.43;4.50;;;14.80;99.90;;;;;;5063476;28;20025;-64
2023/05/01 08:43:18;;;;;;;11.93;4.18;;;15.10;99.90;;;;;;5061037;28;20079;-64
2023/05/01 08:45:46;;;;;;;8.77;3.72;;;15.30;99.90;;;;;;5062818;28;20430;-64
2023/05/01 08:48:15;;;;;;;5.47;3.30;;;15.40;99.90;;;;;;5066358;28;20491;-64
2023/05/01 08:50:45;;;;;;;6.05;3.63;;;15.50;99.90;;;;;;5063969;28;20461;-65
2023/05/01 08:53:14;;;;;;;7.45;3.90;;;15.40;99.90;;;;;;5066112;28;20029;-65
2023/05/01 08:55:45;;;;;;;6.07;3.90;;;15.20;99.90;;;;;;5063761;28;20029;-63
2023/05/01 08:58:13;;;;;;;11.88;4.22;;;15.40;99.90;;;;;;5059034;28;20122;-64
2023/05/01 09:00:40;;;;;;;6.68;4.05;;;15.50;99.90;;;;;;5058462;28;20029;-64
2023/05/01 09:03:10;;;;;;;7.65;3.20;;;15.40;99.90;;;;;;5067184;28;20110;-64
2023/05/01 09:05:36;;;;;;;10.07;3.88;;;15.50;99.90;;;;;;5066391;28;20028;-64
2023/05/01 09:08:02;;;;;;;9.98;3.40;;;15.50;99.90;;;;;;5069085;28;20025;-64
2023/05/01 09:10:28;;;;;;;12.57;3.70;;;15.50;99.90;;;;;;5064406;28;20308;-64
2023/05/01 09:12:58;;;;;;;9.50;3.67;;;15.50;99.90;;;;;;5075259;28;20029;-64
2023/05/01 09:15:28;;;;;;;7.57;3.83;;;15.60;99.90;;;;;;5068103;28;20020;-65
2023/05/01 09:17:55;;;;;;;9.75;3.90;;;15.50;99.90;;;;;;5072471;28;20478;-64
2023/05/01 09:20:21;;;;;;;10.10;3.40;;;15.50;99.90;;;;;;5068795;28;20029;-64
2023/05/01 09:22:48;;;;;;;6.13;3.50;;;15.30;99.90;;;;;;5061755;28;20025;-65
2023/05/01 09:25:13;;;;;;;5.55;3.72;;;15.40;99.90;;;;;;5065447;28;20039;-64
2023/05/01 09:27:39;;;;;;;11.83;4.43;;;15.50;99.90;;;;;;5071832;28;20119;-64
2023/05/01 09:30:06;;;;;;;8.83;4.93;;;15.60;99.90;;;;;;5068247;28;20106;-77
2023/05/01 09:32:32;;;;;;;;;;;15.70;99.90;;;;;;5062856;28;20112;-65
2023/05/01 09:35:12;;;;;;;10.35;4.38;;;15.70;99.90;;;;;;5062698;28;20003;-64
2023/05/01 09:37:38;;;;;;;11.38;3.75;;;15.70;99.90;;;;;;5074398;28;20038;-65
2023/05/01 09:40:13;;;;;;;8.00;3.95;;;15.40;99.90;;;;;;5068455;28;20107;-65
2023/05/01 09:42:39;;;;;;;10.38;3.83;;;15.50;99.90;;;;;;5062878;28;20044;-65
2023/05/01 09:45:14;;;;;;;11.07;4.32;;;15.40;99.90;;;;;;5078682;28;20482;-65
2023/05/01 09:47:46;;;;;;;9.13;4.40;;;15.30;99.90;;;;;;5063653;28;20041;-67
2023/05/01 09:50:28;;;;;;;8.85;3.38;;;15.50;99.90;;;;;;5064454;28;20036;-64
2023/05/01 09:52:53;;;;;;;10.13;3.90;;;15.90;99.90;;;;;;5070346;28;20094;-65
2023/05/01 09:55:19;;;;;;;15.30;3.97;;;16.40;99.90;;;;;;5073548;28;20415;-64
2023/05/01 09:57:46;;;;;;;9.88;3.95;;;16.50;99.90;;;;;;5074668;28;20031;-65
2023/05/01 10:00:15;;;;;;;6.28;3.75;;;16.30;99.90;;;;;;5066756;28;20386;-65
2023/05/01 10:02:44;;;;;;;6.07;3.30;;;16.30;99.90;;;;;;5068326;28;20020;-64
2023/05/01 10:05:11;;;;;;;10.43;4.03;;;16.60;99.90;;;;;;5073625;28;20441;-65
2023/05/01 10:07:37;;;;;;;;;;;16.60;99.90;;;;;;5057183;28;20021;-65
2023/05/01 10:10:17;;;;;;;8.02;3.38;;;16.30;99.90;;;;;;5066042;28;19919;-65
2023/05/01 10:12:42;;;;;;;6.68;3.38;;;16.30;99.90;;;;;;5061553;28;20037;-64
2023/05/01 10:15:09;;;;;;;7.50;3.67;;;16.70;99.90;;;;;;5062204;28;20020;-77
2023/05/01 10:17:35;;;;;;;9.55;3.38;;;16.80;99.90;;;;;;5062978;28;20020;-64
2023/05/01 10:20:00;;;;;;;10.32;3.95;;;17.00;99.90;;;;;;5059482;28;20041;-66
2023/05/01 10:22:27;;;;;;;4.83;2.93;;;16.90;99.90;;;;;;5066210;28;20434;-78
2023/05/01 10:24:53;;;;;;;9.60;2.88;;;17.00;99.90;;;;;;5071957;28;20029;-64
2023/05/01 10:27:21;;;;;;;9.30;3.23;;;16.80;99.90;;;;;;5074339;28;20036;-65
2023/05/01 10:29:49;;;;;;;6.88;3.35;;;17.00;99.90;;;;;;5072821;28;20032;-64
2023/05/01 10:32:15;;;;;;;8.07;2.38;;;17.10;99.90;;;;;;5066922;28;20436;-65
2023/05/01 10:34:49;;;;;;;6.47;2.37;;;16.90;99.90;;;;;;5074884;28;20111;-64
2023/05/01 10:37:22;;;;;;;11.68;2.72;;;16.60;99.90;;;;;;5072787;28;20059;-65
2023/05/01 10:39:47;;;;;;;5.78;2.38;;;16.60;99.90;;;;;;5071284;28;20365;-64
2023/05/01 10:42:13;;;;;;;5.83;2.63;;;16.20;99.90;;;;;;5071623;28;20056;-65
2023/05/01 10:44:40;;;;;;;5.03;2.00;;;16.00;99.90;;;;;;5062538;28;20028;-78
2023/05/01 10:47:24;;;;;;;5.05;2.20;;;15.90;99.90;;;;;;5061735;28;20029;-64
2023/05/01 10:50:06;;;;;;;3.83;1.77;;;15.90;99.90;;;;;;5058060;28;20463;-65
2023/05/01 10:53:16;;;;;;;6.13;1.90;;;15.90;99.90;;;;;;5062413;28;20067;-66
2023/05/01 10:55:46;;;;;;;8.10;2.30;;;16.00;99.90;;;;;;5058982;28;20028;-64
2023/05/01 10:58:13;;;;;;;6.72;2.20;;;15.90;99.90;;;;;;5059906;28;20044;-65
2023/05/01 11:00:40;;;;;;;8.13;2.72;;;16.10;99.90;;;;;;5058425;28;20021;-65
2023/05/01 11:03:20;;;;;;;9.55;2.97;;;16.10;99.90;;;;;;5056118;28;20021;-65
2023/05/01 11:06:03;;;;;;;7.80;3.15;;;16.10;99.90;;;;;;5062573;28;20021;-65
2023/05/01 11:09:00;;;;;;;9.40;3.22;;;16.00;99.90;;;;;;5059830;28;20101;-65
2023/05/01 11:11:25;;;;;;;7.60;3.17;;;15.90;99.90;;;;;;5061278;28;20070;-65
2023/05/01 11:14:02;;;;;;;9.30;3.63;;;15.80;99.90;;;;;;5062052;28;20021;-64
2023/05/01 11:16:36;;;;;;;6.20;3.67;;;15.60;99.90;;;;;;5062109;28;20028;-65
2023/05/01 11:19:06;;;;;;;9.55;3.03;;;15.40;99.90;;;;;;5055557;28;20021;-77
2023/05/01 11:21:33;;;;;;;9.63;2.97;;;15.30;99.90;;;;;;5068432;28;20082;-64
2023/05/01 11:23:59;;;;;;;;;;;15.30;99.90;;;;;;5056374;28;20173;-64
2023/05/01 11:26:26;;;;;;;9.63;3.30;;;15.30;99.90;;;;;;5060882;28;19938;-65
2023/05/01 11:28:54;;;;;;;8.30;3.97;;;15.20;99.90;;;;;;5066173;28;20427;-65
2023/05/01 11:31:20;;;;;;;9.70;3.75;;;15.10;99.90;;;;;;5061375;28;20057;-76
2023/05/01 11:33:46;;;;;;;10.32;4.25;;;14.90;99.90;;;;;;5060314;28;20040;-65
2023/05/01 11:36:13;;;;;;;9.20;4.33;;;14.90;99.90;;;;;;5062645;28;20736;-66
2023/05/01 11:38:58;;;;;;;10.80;4.38;;;14.90;99.90;;;;;;5070354;28;20040;-65
2023/05/01 11:41:27;;;;;;;7.97;4.32;;;14.70;99.90;;;;;;5071293;28;20023;-78
2023/05/01 11:43:59;;;;;;;13.23;4.55;;;14.60;99.90;;;;;;5061166;28;20064;-64
2023/05/01 11:46:29;;;;;;;8.90;3.85;;;14.50;99.90;;;;;;5071860;28;20039;-74
2023/05/01 11:48:56;;;;;;;6.43;3.33;;;14.60;99.90;;;;;;5060032;28;20331;-64
2023/05/01 11:51:23;;;;;;;7.72;3.28;;;14.50;99.90;;;;;;5068572;28;20029;-66
2023/05/01 11:53:59;;;;;;;7.85;3.28;;;14.50;99.90;;;;;;5057793;28;20332;-64
2023/05/01 11:56:25;;;;;;;8.48;3.65;;;14.40;99.90;;;;;;5067641;28;20024;-76
2023/05/01 11:58:53;;;;;;;4.83;3.37;;;14.40;99.90;;;;;;5061419;28;20294;-64
2023/05/01 12:01:19;;;;;;;8.82;3.25;;;14.40;99.90;;;;;;5055786;28;20032;-64
2023/05/01 12:03:44;;;;;;;11.87;4.33;;;14.40;99.90;;;;;;5059741;28;20024;-64
2023/05/01 12:06:12;;;;;;;9.57;3.90;;;14.30;99.90;;;;;;5057596;28;20060;-64
2023/05/01 12:08:43;;;;;;;8.45;3.53;;;14.30;99.90;;;;;;5070601;28;20016;-64
2023/05/01 12:11:10;;;;;;;9.73;4.35;;;14.30;99.90;;;;;;5070141;28;20356;-65
2023/05/01 12:13:37;;;;;;;8.60;3.67;;;14.30;99.90;;;;;;5065139;28;20068;-65
2023/05/01 12:16:03;;;;;;;8.63;3.60;;;14.30;99.90;;;;;;5058507;28;20044;-65
2023/05/01 12:18:29;;;;;;;10.65;3.40;;;14.40;99.90;;;;;;5065600;28;20036;-65
2023/05/01 12:20:55;;;;;;;6.37;3.57;;;14.50;99.90;;;;;;5066372;28;20081;-72
2023/05/01 12:23:38;;;;;;;6.80;3.17;;;14.40;99.90;;;;;;5058515;28;20026;-65
2023/05/01 12:26:22;;;;;;;4.63;2.45;;;14.50;99.90;;;;;;5060740;28;20419;-65
2023/05/01 12:28:59;;;;;;;12.68;3.35;;;14.50;99.90;;;;;;5080025;28;20748;-65
2023/05/01 12:31:26;;;;;;;9.07;3.25;;;14.50;99.90;;;;;;5071816;28;20111;-65
2023/05/01 12:33:56;;;;;;;6.15;2.80;;;14.40;99.90;;;;;;5069946;28;20043;-76
2023/05/01 12:36:24;;;;;;;13.95;3.85;;;14.50;99.90;;;;;;5073010;28;20032;-65
2023/05/01 12:39:12;;;;;;;7.32;2.97;;;14.60;99.90;;;;;;5060194;28;20100;-65
2023/05/01 12:41:48;;;;;;;10.02;3.85;;;14.60;99.90;;;;;;5060817;28;20048;-65
2023/05/01 12:44:25;;;;;;;7.95;3.88;;;14.80;99.90;;;;;;5061102;28;20048;-65
2023/05/01 12:47:11;;;;;;;6.80;3.72;;;15.00;99.90;;;;;;5074488;28;20055;-65
2023/05/01 12:49:37;;;;;;;9.20;4.20;;;15.00;99.90;;;;;;5075960;28;20033;-65
2023/05/01 12:52:05;;;;;;;15.33;4.50;;;14.90;99.90;;;;;;5074428;28;20437;-66
2023/05/01 12:54:40;;;;;;;11.00;4.75;;;14.80;99.90;;;;;;5074697;28;20277;-65
2023/05/01 12:57:13;;;;;;;10.40;4.45;;;14.80;99.90;;;;;;5072538;28;20027;-65